createdAt,value
2022-08-03T00:01:19.470Z,1.50
2022-08-03T00:04:06.746Z,1.13
2022-08-03T00:06:52.829Z,1.38
2022-08-03T00:09:39.144Z,1.48
2022-08-03T00:12:25.264Z,1.45
2022-08-03T00:15:16.426Z,1.30
2022-08-03T00:18:02.832Z,1.40
2022-08-03T00:20:49.139Z,1.55
2022-08-03T00:23:50.786Z,1.17
2022-08-03T00:26:38.462Z,1.67
2022-08-03T00:29:24.578Z,1.50
2022-08-03T00:32:10.985Z,1.63
2022-08-03T00:34:59.070Z,1.58
2022-08-03T00:37:45.349Z,1.45
2022-08-03T00:40:32.154Z,1.50
2022-08-03T00:43:18.402Z,1.45
2022-08-03T00:46:04.631Z,1.63
2022-08-03T00:48:51.116Z,1.48
2022-08-03T00:51:37.256Z,1.55
2022-08-03T00:54:23.482Z,1.70
2022-08-03T00:57:10.071Z,1.58
2022-08-03T00:59:56.471Z,1.50
2022-08-03T01:02:42.613Z,1.40
2022-08-03T01:05:29.796Z,1.95
2022-08-03T01:08:23.198Z,1.38
2022-08-03T01:11:16.811Z,1.50
2022-08-03T01:14:18.016Z,1.30
2022-08-03T01:19:59.829Z,1.40
2022-08-03T01:23:01.125Z,1.33
2022-08-03T01:26:03.651Z,1.15
2022-08-03T01:29:08.559Z,1.52
2022-08-03T01:33:02.301Z,1.48
2022-08-03T01:35:14.091Z,1.23
2022-08-03T01:38:04.886Z,1.13
2022-08-03T01:40:54.101Z,1.42
2022-08-03T01:44:28.092Z,1.48
2022-08-03T01:46:50.104Z,1.52
2022-08-03T01:49:38.872Z,1.38
2022-08-03T01:52:25.429Z,2.08
2022-08-03T01:55:12.780Z,1.40
2022-08-03T01:58:05.377Z,1.50
2022-08-03T02:00:55.921Z,1.75
2022-08-03T02:04:00.102Z,1.27
2022-08-03T02:07:01.968Z,1.38
2022-08-03T02:09:51.083Z,1.50
2022-08-03T02:12:37.907Z,1.33
2022-08-03T02:15:25.340Z,1.80
2022-08-03T02:18:11.708Z,1.30
2022-08-03T02:20:59.432Z,1.55
2022-08-03T02:23:45.716Z,1.50
2022-08-03T02:26:32.175Z,1.40
2022-08-03T02:29:39.368Z,1.40
2022-08-03T02:32:30.989Z,1.58
2022-08-03T02:35:19.475Z,1.80
2022-08-03T02:38:07.777Z,1.55
2022-08-03T02:40:55.728Z,1.73
2022-08-03T02:44:06.500Z,1.73
2022-08-03T02:46:49.792Z,1.23
2022-08-03T02:49:50.502Z,1.50
2022-08-03T02:52:38.850Z,1.50
2022-08-03T02:55:26.585Z,1.48
2022-08-03T02:58:13.728Z,1.73
2022-08-03T03:01:00.757Z,2.35
2022-08-03T03:03:47.009Z,1.95
2022-08-03T03:06:35.384Z,1.55
2022-08-03T03:09:23.663Z,1.70
2022-08-03T03:12:16.072Z,1.67
2022-08-03T03:15:02.405Z,1.60
2022-08-03T03:17:49.860Z,1.55
2022-08-03T03:20:37.793Z,1.88
2022-08-03T03:23:25.147Z,1.42
2022-08-03T03:26:13.349Z,2.03
2022-08-03T03:28:59.717Z,2.22
2022-08-03T03:31:45.801Z,1.80
2022-08-03T03:34:31.848Z,1.60
2022-08-03T03:37:18.288Z,1.70
2022-08-03T03:40:09.172Z,2.35
2022-08-03T03:42:55.750Z,1.67
2022-08-03T03:45:45.121Z,1.90
2022-08-03T03:48:31.029Z,1.95
2022-08-03T03:51:18.674Z,1.88
2022-08-03T03:54:07.091Z,2.17
2022-08-03T03:56:52.995Z,1.92
2022-08-03T03:59:39.995Z,1.85
2022-08-03T04:02:25.993Z,1.83
2022-08-03T04:05:31.528Z,2.10
2022-08-03T04:08:37.249Z,2.20
2022-08-03T04:11:29.045Z,1.95
2022-08-03T04:14:35.869Z,2.28
2022-08-03T04:17:24.115Z,1.50
2022-08-03T04:20:11.050Z,1.67
2022-08-03T04:23:00.518Z,2.05
2022-08-03T04:25:47.252Z,1.63
2022-08-03T04:28:34.785Z,1.80
2022-08-03T04:31:22.189Z,2.28
2022-08-03T04:34:08.242Z,2.42
2022-08-03T04:36:58.372Z,2.00
2022-08-03T04:39:45.097Z,2.05
2022-08-03T04:42:32.175Z,1.95
2022-08-03T04:45:19.123Z,2.22
2022-08-03T04:48:05.536Z,1.92
2022-08-03T04:50:52.253Z,1.70
2022-08-03T04:53:38.598Z,1.90
2022-08-03T04:56:43.794Z,2.00
2022-08-03T04:59:29.871Z,2.28
2022-08-03T05:02:16.459Z,1.85
2022-08-03T05:05:02.996Z,1.83
2022-08-03T05:07:50.127Z,1.52
2022-08-03T05:10:36.875Z,1.90
2022-08-03T05:13:23.286Z,1.90
2022-08-03T05:16:09.760Z,1.60
2022-08-03T05:18:55.785Z,2.05
2022-08-03T05:21:52.723Z,1.70
2022-08-03T05:24:39.590Z,2.10
2022-08-03T05:27:26.691Z,2.10
2022-08-03T05:30:32.287Z,1.70
2022-08-03T05:33:19.127Z,2.42
2022-08-03T05:36:05.957Z,2.40
2022-08-03T05:38:51.946Z,2.33
2022-08-03T05:41:38.228Z,1.90
2022-08-03T05:44:25.736Z,1.58
2022-08-03T05:47:12.189Z,2.10
2022-08-03T05:49:59.083Z,2.97
2022-08-03T05:52:45.285Z,1.88
2022-08-03T05:55:31.618Z,2.40
2022-08-03T05:58:18.022Z,2.40
2022-08-03T06:01:04.815Z,1.90
2022-08-03T06:03:52.357Z,1.55
2022-08-03T06:06:38.846Z,2.10
2022-08-03T06:09:25.558Z,1.60
2022-08-03T06:12:32.280Z,2.03
2022-08-03T06:15:18.977Z,1.83
2022-08-03T06:18:05.491Z,2.10
2022-08-03T06:20:52.480Z,2.30
2022-08-03T06:23:57.183Z,2.50
2022-08-03T06:26:43.619Z,2.50
2022-08-03T06:29:29.801Z,1.90
2022-08-03T06:32:16.651Z,2.00
2022-08-03T06:35:04.020Z,2.70
2022-08-03T06:37:51.862Z,2.15
2022-08-03T06:40:41.340Z,2.63
2022-08-03T06:44:03.806Z,2.00
2022-08-03T06:46:51.383Z,2.50
2022-08-03T06:49:38.402Z,2.20
2022-08-03T06:52:37.106Z,1.70
2022-08-03T06:55:24.549Z,2.53
2022-08-03T06:58:10.393Z,2.60
2022-08-03T07:00:57.288Z,1.77
2022-08-03T07:03:52.273Z,1.95
2022-08-03T07:06:39.444Z,1.95
2022-08-03T07:09:26.956Z,2.00
2022-08-03T07:12:13.299Z,2.17
2022-08-03T07:15:02.604Z,2.42
2022-08-03T07:17:50.909Z,2.03
2022-08-03T07:20:37.750Z,2.10
2022-08-03T07:23:24.350Z,1.92
2022-08-03T07:26:11.941Z,2.40
2022-08-03T07:28:58.140Z,1.77
2022-08-03T07:31:44.286Z,2.45
2022-08-03T07:34:30.647Z,2.10
2022-08-03T07:37:16.653Z,2.05
2022-08-03T07:40:06.327Z,1.88
2022-08-03T07:42:54.120Z,1.87
2022-08-03T07:45:40.083Z,1.60
2022-08-03T07:48:26.244Z,2.03
2022-08-03T07:51:12.576Z,2.30
2022-08-03T07:53:59.348Z,1.80
2022-08-03T07:56:46.423Z,2.15
2022-08-03T07:59:57.235Z,1.13
2022-08-03T08:02:39.645Z,1.60
2022-08-03T08:05:26.047Z,1.63
2022-08-03T08:08:12.006Z,1.40
2022-08-03T08:10:59.179Z,2.25
2022-08-03T08:13:45.507Z,1.20
2022-08-03T08:16:32.087Z,1.30
2022-08-03T08:19:38.347Z,1.10
2022-08-03T08:22:35.364Z,1.20
2022-08-03T08:25:25.387Z,1.55
2022-08-03T08:28:31.371Z,1.50
2022-08-03T08:31:19.487Z,1.30
2022-08-03T08:34:08.916Z,1.13
2022-08-03T08:36:59.042Z,1.50
2022-08-03T08:40:02.467Z,1.05
2022-08-03T08:42:58.692Z,1.52
2022-08-03T08:45:52.714Z,1.60
2022-08-03T08:48:43.114Z,1.25
2022-08-03T08:51:54.847Z,1.20
2022-08-03T08:54:42.122Z,1.17
2022-08-03T08:57:42.914Z,1.30
2022-08-03T09:00:33.427Z,1.42
2022-08-03T09:03:45.776Z,1.27
2022-08-03T09:06:35.820Z,1.58
2022-08-03T09:10:10.154Z,1.05
2022-08-03T09:12:44.136Z,1.15
2022-08-03T09:15:32.514Z,1.45
2022-08-03T09:18:29.325Z,1.25
2022-08-03T09:21:32.850Z,1.30
2022-08-03T09:24:40.579Z,1.05
2022-08-03T09:27:46.054Z,1.02
2022-08-03T09:30:36.278Z,1.70
2022-08-03T09:33:24.577Z,1.42
2022-08-03T09:36:38.330Z,1.55
2022-08-03T09:39:40.408Z,1.60
2022-08-03T09:42:27.939Z,1.35
2022-08-03T09:45:29.190Z,1.50
2022-08-03T09:48:26.030Z,0.90
2022-08-03T09:51:32.874Z,1.25
2022-08-03T09:54:27.563Z,1.23
2022-08-03T09:57:21.374Z,1.20
2022-08-03T10:04:05.712Z,1.00
2022-08-03T10:07:18.675Z,1.40
2022-08-03T10:15:03.187Z,1.10
2022-08-03T10:17:49.359Z,1.30
2022-08-03T10:20:43.607Z,1.40
2022-08-03T10:23:35.515Z,1.17
2022-08-03T10:26:22.725Z,1.17
2022-08-03T10:29:13.003Z,1.13
2022-08-03T10:32:01.474Z,1.10
2022-08-03T10:34:50.780Z,1.20
2022-08-03T10:37:56.418Z,0.88
2022-08-03T10:40:49.964Z,0.90
2022-08-03T10:43:55.594Z,1.20
2022-08-03T10:46:44.927Z,0.93
2022-08-03T10:49:35.169Z,0.93
2022-08-03T10:52:31.408Z,1.23
2022-08-03T10:55:52.436Z,1.35
2022-08-03T10:58:53.114Z,1.08
2022-08-03T11:02:01.308Z,1.00
2022-08-03T11:04:48.271Z,1.08
2022-08-03T11:07:34.076Z,0.65
2022-08-03T11:10:30.303Z,0.77
2022-08-03T11:13:18.889Z,1.25
2022-08-03T11:16:21.908Z,0.80
2022-08-03T11:19:10.142Z,1.27
2022-08-03T11:21:57.228Z,1.15
2022-08-03T11:24:57.751Z,0.75
2022-08-03T11:27:43.931Z,1.23
2022-08-03T11:30:30.124Z,1.00
2022-08-03T11:33:28.892Z,0.70
2022-08-03T11:36:16.593Z,1.00
2022-08-03T11:39:20.330Z,1.13
2022-08-03T11:42:24.448Z,0.85
2022-08-03T11:45:11.350Z,0.90
2022-08-03T11:48:00.634Z,0.60
2022-08-03T11:50:46.659Z,0.85
2022-08-03T11:53:33.011Z,0.80
2022-08-03T11:56:28.758Z,0.70
2022-08-03T11:59:19.989Z,0.50
2022-08-03T12:02:11.990Z,0.90
2022-08-03T12:05:01.430Z,0.90
2022-08-03T12:08:03.515Z,0.68
2022-08-03T12:10:52.227Z,0.63
2022-08-03T12:14:05.774Z,0.57
2022-08-03T12:16:49.307Z,0.57
2022-08-03T12:19:44.559Z,0.60
2022-08-03T12:22:38.607Z,0.50
2022-08-03T12:25:39.548Z,0.52
2022-08-03T12:28:36.060Z,0.55
2022-08-03T12:31:23.746Z,0.68
2022-08-03T12:34:10.056Z,0.57
2022-08-03T12:36:57.059Z,0.90
2022-08-03T12:40:02.213Z,0.60
2022-08-03T12:42:53.536Z,0.85
2022-08-03T12:45:39.842Z,0.60
2022-08-03T12:48:25.633Z,0.70
2022-08-03T12:51:13.642Z,0.40
2022-08-03T12:54:00.143Z,0.55
2022-08-03T12:56:58.277Z,0.65
2022-08-03T12:59:53.620Z,0.85
2022-08-03T13:02:56.437Z,0.80
2022-08-03T13:05:54.621Z,0.50
2022-08-03T13:08:41.175Z,0.70
2022-08-03T13:11:43.432Z,0.50
2022-08-03T13:14:33.566Z,0.50
2022-08-03T13:17:20.234Z,0.60
2022-08-03T13:20:10.426Z,0.70
2022-08-03T13:23:00.752Z,0.38
2022-08-03T13:25:55.909Z,0.60
2022-08-03T13:28:42.517Z,0.50
2022-08-03T13:31:28.546Z,0.70
2022-08-03T13:34:14.524Z,0.63
2022-08-03T13:37:08.849Z,0.60
2022-08-03T13:39:59.675Z,0.50
2022-08-03T13:42:46.351Z,0.77
2022-08-03T13:45:32.475Z,0.30
2022-08-03T13:48:35.883Z,0.43
2022-08-03T13:51:23.758Z,0.55
2022-08-03T13:54:09.989Z,0.55
2022-08-03T13:57:00.581Z,0.90
2022-08-03T14:00:03.194Z,0.65
2022-08-03T14:02:52.009Z,0.30
2022-08-03T14:05:38.862Z,0.65
2022-08-03T14:08:24.679Z,0.70
2022-08-03T14:11:11.270Z,0.52
2022-08-03T14:13:57.443Z,0.55
2022-08-03T14:16:43.502Z,0.50
2022-08-03T14:19:31.189Z,0.90
2022-08-03T14:22:17.916Z,0.88
2022-08-03T14:25:04.279Z,0.50
2022-08-03T14:27:50.103Z,0.50
2022-08-03T14:30:56.036Z,0.50
2022-08-03T14:33:42.628Z,1.20
2022-08-03T14:36:28.347Z,0.60
2022-08-03T14:39:14.671Z,0.75
2022-08-03T14:42:00.738Z,0.47
2022-08-03T14:44:46.817Z,0.50
2022-08-03T14:47:33.308Z,0.50
2022-08-03T14:50:45.431Z,0.50
2022-08-03T14:53:34.252Z,0.60
2022-08-03T14:56:20.786Z,0.70
2022-08-03T14:59:06.848Z,0.63
2022-08-03T15:02:06.262Z,0.50
2022-08-03T15:04:53.910Z,0.45
2022-08-03T15:07:40.117Z,0.75
2022-08-03T15:10:27.069Z,0.65
2022-08-03T15:13:27.008Z,1.05
2022-08-03T15:16:32.116Z,1.08
2022-08-03T15:20:00.985Z,0.45
2022-08-03T15:22:25.129Z,0.75
2022-08-03T15:26:28.245Z,0.80
2022-08-03T15:28:33.647Z,0.80
2022-08-03T15:31:23.441Z,0.60
2022-08-03T15:34:09.423Z,0.75
2022-08-03T15:36:55.545Z,1.05
2022-08-03T15:39:59.603Z,0.70
2022-08-03T15:42:46.780Z,0.80
2022-08-03T15:45:36.195Z,0.60
2022-08-03T15:48:26.457Z,0.60
2022-08-03T15:51:12.734Z,0.50
2022-08-03T15:53:59.134Z,0.60
2022-08-03T15:56:46.039Z,0.60
2022-08-03T15:59:31.864Z,0.73
2022-08-03T16:02:18.185Z,0.60
2022-08-03T16:05:04.570Z,1.13
2022-08-03T16:08:03.178Z,0.90
2022-08-03T16:10:50.390Z,0.68
2022-08-03T16:14:12.930Z,0.60
2022-08-03T16:16:44.494Z,0.82
2022-08-03T16:19:31.870Z,0.65
2022-08-03T16:22:19.484Z,0.85
2022-08-03T16:25:05.872Z,1.40
2022-08-03T16:28:07.618Z,0.80
2022-08-03T16:30:59.248Z,0.63
2022-08-03T16:33:45.333Z,0.80
2022-08-03T16:36:34.776Z,1.20
2022-08-03T16:39:21.105Z,0.90
2022-08-03T16:42:07.288Z,1.23
2022-08-03T16:44:53.367Z,1.20
2022-08-03T16:47:39.882Z,1.00
2022-08-03T16:50:26.351Z,0.90
2022-08-03T16:53:16.611Z,0.80
2022-08-03T16:56:08.011Z,1.05
2022-08-03T16:58:55.963Z,0.90
2022-08-03T17:01:42.792Z,1.20
2022-08-03T17:04:33.895Z,1.17
2022-08-03T17:07:20.567Z,1.00
2022-08-03T17:10:12.453Z,0.90
2022-08-03T17:12:58.609Z,1.10
2022-08-03T17:16:01.573Z,0.88
2022-08-03T17:18:58.806Z,1.05
2022-08-03T17:21:58.001Z,1.00
2022-08-03T17:24:50.330Z,1.48
2022-08-03T17:28:50.675Z,1.00
2022-08-03T17:31:03.586Z,1.00
2022-08-03T17:34:08.986Z,0.82
2022-08-03T17:37:05.503Z,0.93
2022-08-03T17:39:59.065Z,0.88
2022-08-03T17:43:00.532Z,1.00
2022-08-03T17:45:52.721Z,1.20
2022-08-03T17:48:42.050Z,0.95
2022-08-03T17:51:46.481Z,0.82
2022-08-03T17:55:55.380Z,0.95
2022-08-03T17:58:02.583Z,1.00
2022-08-03T18:02:00.061Z,1.17
2022-08-03T18:04:21.762Z,1.15
2022-08-03T18:07:18.961Z,1.20
2022-08-03T18:10:11.305Z,1.00
2022-08-03T18:13:03.119Z,1.10
2022-08-03T18:16:03.506Z,1.10
2022-08-03T18:18:54.787Z,0.98
2022-08-03T18:22:03.366Z,1.00
2022-08-03T18:24:52.215Z,1.20
2022-08-03T18:27:45.626Z,0.80
2022-08-03T18:30:34.378Z,1.20
2022-08-03T18:34:16.481Z,1.35
2022-08-03T18:36:47.990Z,1.80
2022-08-03T18:39:35.957Z,1.05
2022-08-03T18:42:35.986Z,1.13
2022-08-03T18:45:55.819Z,1.00
2022-08-03T18:48:48.624Z,1.63
2022-08-03T18:51:43.206Z,1.30
2022-08-03T18:55:01.061Z,1.00
2022-08-03T18:57:59.723Z,0.90
2022-08-03T19:00:55.084Z,0.80
2022-08-03T19:03:47.670Z,1.23
2022-08-03T19:06:38.776Z,0.87
2022-08-03T19:09:38.165Z,1.13
2022-08-03T19:12:39.503Z,1.20
2022-08-03T19:15:36.917Z,1.20
2022-08-03T19:18:28.204Z,1.50
2022-08-03T19:21:15.622Z,1.83
2022-08-03T19:24:05.598Z,2.17
2022-08-03T19:26:56.129Z,2.10
2022-08-03T19:29:58.465Z,2.17
2022-08-03T19:32:48.188Z,1.33
2022-08-03T19:35:51.952Z,1.05
2022-08-03T19:38:41.737Z,1.42
2022-08-03T19:41:41.916Z,1.38
2022-08-03T19:44:43.420Z,1.35
2022-08-03T19:47:40.109Z,1.43
2022-08-03T19:50:32.824Z,2.17
2022-08-03T19:53:22.516Z,1.77
2022-08-03T19:56:11.938Z,1.67
2022-08-03T19:58:58.798Z,1.58
2022-08-03T20:01:50.436Z,1.48
2022-08-03T20:04:38.588Z,1.38
2022-08-03T20:07:29.107Z,1.95
2022-08-03T20:10:18.009Z,1.63
2022-08-03T20:13:04.736Z,1.35
2022-08-03T20:15:54.510Z,1.48
2022-08-03T20:18:40.771Z,1.60
2022-08-03T20:21:32.201Z,1.58
2022-08-03T20:24:27.064Z,1.13
2022-08-03T20:27:17.033Z,1.17
2022-08-03T20:30:06.633Z,1.30
2022-08-03T20:32:58.647Z,1.10
2022-08-03T20:35:45.805Z,1.10
2022-08-03T20:38:43.805Z,1.10
2022-08-03T20:41:33.302Z,1.50
2022-08-03T20:44:25.632Z,1.30
2022-08-03T20:47:12.127Z,1.67
2022-08-03T20:50:09.998Z,1.48
2022-08-03T20:53:06.007Z,1.55
2022-08-03T20:56:01.679Z,2.15
2022-08-03T20:58:51.607Z,2.13
2022-08-03T21:01:56.631Z,1.40
2022-08-03T21:04:43.652Z,1.80
2022-08-03T21:08:05.519Z,1.35
2022-08-03T21:10:43.034Z,1.75
2022-08-03T21:13:37.337Z,1.83
2022-08-03T21:16:27.044Z,1.98
2022-08-03T21:19:13.814Z,1.83
2022-08-03T21:22:00.359Z,1.17
2022-08-03T21:24:46.625Z,1.50
2022-08-03T21:27:33.782Z,1.65
2022-08-03T21:30:23.230Z,1.67
2022-08-03T21:33:09.173Z,1.52
2022-08-03T21:35:55.320Z,1.92
2022-08-03T21:38:41.933Z,1.75
2022-08-03T21:41:28.903Z,1.85
2022-08-03T21:44:16.939Z,1.08
2022-08-03T21:47:11.377Z,1.20
2022-08-03T21:50:06.837Z,1.50
2022-08-03T21:52:59.082Z,1.42
2022-08-03T21:56:33.705Z,1.30
2022-08-03T22:00:23.487Z,1.20
2022-08-03T22:03:09.329Z,1.10
2022-08-03T22:06:05.672Z,1.60
2022-08-03T22:08:52.889Z,1.20
2022-08-03T22:11:38.940Z,1.60
2022-08-03T22:14:25.013Z,1.60
2022-08-03T22:17:11.123Z,1.17
2022-08-03T22:19:57.211Z,1.30
2022-08-03T22:22:55.397Z,1.42
2022-08-03T22:25:46.019Z,2.00
2022-08-03T22:28:32.495Z,1.90
2022-08-03T22:31:57.114Z,1.27
2022-08-03T22:34:34.111Z,1.00
2022-08-03T22:37:27.351Z,1.02
2022-08-03T22:40:17.408Z,1.20
2022-08-03T22:43:04.279Z,1.15
2022-08-03T22:46:10.370Z,1.20
2022-08-03T22:48:58.066Z,1.15
2022-08-03T22:51:44.673Z,1.30
2022-08-03T22:54:31.789Z,1.30
2022-08-03T22:57:20.260Z,1.55
2022-08-03T23:00:11.094Z,1.35
2022-08-03T23:03:00.429Z,1.58
2022-08-03T23:06:01.644Z,1.08
2022-08-03T23:08:50.463Z,1.45
2022-08-03T23:11:38.051Z,1.23
2022-08-03T23:14:30.406Z,1.35
2022-08-03T23:17:17.201Z,1.38
2022-08-03T23:20:06.322Z,1.40
2022-08-03T23:22:54.302Z,1.33
2022-08-03T23:25:41.521Z,1.13
2022-08-03T23:28:29.010Z,1.48
2022-08-03T23:31:15.630Z,1.17
2022-08-03T23:34:20.761Z,1.48
2022-08-03T23:37:06.921Z,1.40
2022-08-03T23:39:53.156Z,1.20
2022-08-03T23:42:39.936Z,1.35
2022-08-03T23:45:26.912Z,1.80
2022-08-03T23:48:12.922Z,1.83
2022-08-03T23:51:19.638Z,1.52
2022-08-03T23:54:11.786Z,1.20
2022-08-03T23:57:33.604Z,1.60
